»·PEaware :: DAL245 KLAS-KSAN

DAL245 :: KLAS-KSAN

FLIGHT INFORMATION

Flight Status: Arrived
Operator:
Delta Air Lines
More flights by this operator :: More flights under this callsign
Pilot: Jacob K. (19449)
Aircraft: BOEING 737-800
(B738)
More flights by this aircraft type
Origin: KLAS McCarran Intl
United States
Destination: KSAN San Diego Intl-Lindbergh
United States
More flights between these airports :: More routes between these airports
Route: +BOACH8 LVELL LUCKI1
File this flight plan on PilotEdge
Remarks:
Altitude:
(Current/Filed)
30,000ft
Speed:
(Current/Filed)
460kts
Departed: 27-Sep-18 06:01 PM
Arrived: 27-Sep-18 06:44 PM
Distance/Time
Traveled:
225nm/0:43
Distance/Time
To Go:
Arrived

Flight Plot

Page will automatically refresh every two minutes.

Flight plan parsing failed; only flown route is shown


Map Options




Map Legend


Flown Route
Filed Route
Departure Airport
Arrival Airport
Navaid (VOR, NDB)
Fix

Horizontal Profiles

Position Reports

Time Latitude Longitude Heading Altitude Ground
Speed
27-Sep-18 17:29 36.083242 -115.152989 156 2189ft 0kts
27-Sep-18 17:30 36.083242 -115.152989 156 2189ft 0kts
27-Sep-18 17:31 36.083242 -115.152989 156 2189ft 0kts
27-Sep-18 17:32 36.083242 -115.152989 156 2189ft 0kts
27-Sep-18 17:33 36.083242 -115.152989 156 2189ft 0kts
27-Sep-18 17:34 36.083242 -115.152989 156 2189ft 0kts
27-Sep-18 17:35 36.083242 -115.152989 156 2189ft 0kts
27-Sep-18 17:36 36.083242 -115.152989 156 2189ft 0kts
27-Sep-18 17:37 36.083242 -115.152989 156 2189ft 0kts
27-Sep-18 17:38 36.083242 -115.152989 156 2189ft 0kts
27-Sep-18 17:39 36.083242 -115.152989 156 2189ft 0kts
27-Sep-18 17:40 36.083242 -115.152989 156 2189ft 0kts
27-Sep-18 17:41 36.083242 -115.152989 156 2189ft 0kts
27-Sep-18 17:42 36.083242 -115.152989 156 2189ft 0kts
27-Sep-18 17:43 36.083242 -115.152989 156 2189ft 0kts
27-Sep-18 17:44 36.083242 -115.152989 156 2189ft 0kts
27-Sep-18 17:45 36.083242 -115.152989 156 2189ft 0kts
27-Sep-18 17:46 36.083242 -115.152989 156 2189ft 0kts
27-Sep-18 17:47 36.083242 -115.152989 156 2189ft 0kts
27-Sep-18 17:48 36.083606 -115.153256 148 2189ft 2kts
27-Sep-18 17:49 36.084066 -115.153565 200 2189ft 1kts
27-Sep-18 17:50 36.084145 -115.153437 244 2189ft 0kts
27-Sep-18 17:51 36.084145 -115.153437 244 2189ft 0kts
27-Sep-18 17:52 36.084145 -115.153437 244 2189ft 0kts
27-Sep-18 17:53 36.083815 -115.154307 244 2189ft 0kts
27-Sep-18 17:54 36.083311 -115.155588 234 2189ft 0kts
27-Sep-18 17:55 36.081647 -115.155016 154 2189ft 11kts
27-Sep-18 17:56 36.078818 -115.153362 154 2189ft 5kts
27-Sep-18 17:57 36.077947 -115.149614 93 2189ft 12kts
27-Sep-18 17:58 36.077672 -115.145641 95 2189ft 10kts
27-Sep-18 17:59 36.077522 -115.141091 90 2189ft 17kts
27-Sep-18 18:00 36.077539 -115.133789 89 2189ft 21kts
27-Sep-18 18:01 36.077545 -115.127749 90 2189ft 8kts
27-Sep-18 18:02 36.076415 -115.126351 262 2189ft 5kts
27-Sep-18 18:03 36.076414 -115.161085 270 2333ft 166kts
27-Sep-18 18:04 36.075822 -115.225458 260 3924ft 236kts
27-Sep-18 18:05 36.027578 -115.290725 197 6457ft 287kts
27-Sep-18 18:06 35.947679 -115.308561 183 7921ft 295kts
27-Sep-18 18:07 35.866229 -115.313941 186 10626ft 323kts
27-Sep-18 18:08 35.774542 -115.306030 175 13468ft 341kts
27-Sep-18 18:09 35.678506 -115.294934 177 16220ft 355kts
27-Sep-18 18:10 35.578835 -115.298431 183 18760ft 368kts
27-Sep-18 18:11 35.475455 -115.302611 183 21154ft 381kts
27-Sep-18 18:12 35.367983 -115.306903 183 23024ft 400kts
27-Sep-18 18:13 35.256750 -115.311303 183 25251ft 406kts
27-Sep-18 18:14 35.142592 -115.315811 184 27058ft 418kts
27-Sep-18 18:15 35.024902 -115.320440 184 28721ft 430kts
27-Sep-18 18:16 34.904926 -115.325138 184 29858ft 443kts
27-Sep-18 18:17 34.782493 -115.333471 193 29846ft 465kts
27-Sep-18 18:18 34.660769 -115.383216 202 29868ft 463kts
27-Sep-18 18:19 34.540060 -115.436224 202 29972ft 463kts
27-Sep-18 18:20 34.418906 -115.489041 202 29979ft 463kts
27-Sep-18 18:21 34.300713 -115.547117 213 29993ft 459kts
27-Sep-18 18:22 34.190731 -115.624838 205 29984ft 461kts
27-Sep-18 18:23 34.088257 -115.672779 203 29983ft 463kts
27-Sep-18 18:24 33.968609 -115.729000 203 29843ft 458kts
27-Sep-18 18:25 33.857655 -115.782189 204 29763ft 445kts
27-Sep-18 18:26 33.743653 -115.837784 203 29674ft 448kts
27-Sep-18 18:27 33.625878 -115.892469 203 26235ft 453kts
27-Sep-18 18:28 33.520603 -115.956336 220 24012ft 387kts
27-Sep-18 18:29 33.450717 -116.055396 235 23422ft 398kts
27-Sep-18 18:30 33.387017 -116.164972 235 23552ft 403kts
27-Sep-18 18:31 33.311734 -116.262516 214 23650ft 405kts
27-Sep-18 18:32 33.212667 -116.323478 206 20100ft 393kts
27-Sep-18 18:33 33.119751 -116.377697 206 17890ft 351kts
27-Sep-18 18:34 33.033454 -116.428033 205 14706ft 347kts
27-Sep-18 18:35 32.956728 -116.492652 220 12005ft 330kts
27-Sep-18 18:36 32.888996 -116.561640 219 11994ft 325kts
27-Sep-18 18:37 32.820127 -116.631052 219 11980ft 325kts
27-Sep-18 18:38 32.759502 -116.707243 241 11893ft 316kts
27-Sep-18 18:39 32.721086 -116.799858 243 9549ft 296kts
27-Sep-18 18:40 32.686256 -116.885028 246 6732ft 286kts
27-Sep-18 18:41 32.678432 -116.970429 286 3592ft 243kts
27-Sep-18 18:42 32.696057 -117.036318 286 3546ft 177kts
27-Sep-18 18:43 32.708781 -117.088123 287 3473ft 164kts
27-Sep-18 18:44 32.721054 -117.139119 287 1517ft 154kts
27-Sep-18 18:45 32.732352 -117.184877 286 25ft 125kts
27-Sep-18 18:46 32.734045 -117.195387 249 25ft 12kts
27-Sep-18 18:47 32.733691 -117.197761 255 25ft 0kts

Navigation Log

Ident Type
Flight plan parsing failed, navigation log unavailable